Aviation Digital Data Service (ADDS)

Output produced by METARs form (0656 UTC 24 March 2019)
found at http://www.aviationweather.gov/metar/data/
 
KMPV 240651Z AUTO 00000KT 10SM CLR M11/M13 A3000 RMK AO2 SLP180 T11111133
KMPV 240538Z 2406/2506 VRB03KT P6SM SKC 
     FM241400 26007KT P6SM SKC 
     FM242000 30008KT P6SM BKN045 
     FM250100 34005KT P6SM VCSH OVC028
       
KDDH 240654Z AUTO 23007KT 10SM CLR M03/M10 A3009 RMK AO2 SLP197 T10281100
KBTV 240654Z 12004KT 10SM CLR M08/M09 A3003 RMK AO2 SLP174 I1000 T10781094
KBTV 240538Z 2406/2506 20005KT P6SM SKC 
     FM241300 20010G18KT P6SM SKC 
     FM241900 32006KT P6SM BKN050 
     FM242300 35006KT P6SM VCSH OVC025
       
KFSO 240635Z AUTO 19003KT 10SM CLR M04/M09 A3001 RMK AO2 T10441090
KMVL 240654Z AUTO VRB03KT 10SM CLR M10/M11 A2999 RMK AO2 SLP169 I1000 T11001111 $
KEFK 240655Z AUTO 22012G17KT 10SM CLR M04/M11 A2995 RMK AO2 T10451111
KRUT 240556Z AUTO 00000KT 10SM CLR M04/M11 A3004 RMK AO2 SLP195 T10441106 11011 21056 53008 FZRANO $
KRUT 240538Z 2406/2506 25004KT P6SM SKC 
     FM241400 26007KT P6SM SKC 
     FM242100 29009KT P6SM SCT090 BKN150 
     FM250300 34006KT P6SM SCT045 BKN070
       
KVSF 240654Z AUTO 00000KT 10SM CLR M02/M11 A3001 RMK AO2 SLP170 T10171111